createdAt,value
2022-08-16T00:05:09.027Z,97812.88
2022-08-16T00:15:23.230Z,97811.27
2022-08-16T00:26:34.647Z,97825.09
2022-08-16T00:35:57.752Z,97824.89
2022-08-16T00:46:33.057Z,97822.91
2022-08-16T00:56:57.176Z,97817.09
2022-08-16T01:07:06.636Z,97822.23
2022-08-16T01:17:14.711Z,97825.45
2022-08-16T01:27:26.555Z,97819.52
2022-08-16T01:37:43.360Z,97813.42
2022-08-16T01:47:52.566Z,97814.70
2022-08-16T01:57:59.815Z,97818.08
2022-08-16T02:08:07.643Z,97821.91
2022-08-16T02:18:35.331Z,97825.58
2022-08-16T02:28:47.014Z,97814.13
2022-08-16T02:38:54.575Z,97820.51
2022-08-16T02:49:02.327Z,97820.30
2022-08-16T02:59:11.697Z,97822.18
2022-08-16T03:09:22.029Z,97819.98
2022-08-16T03:19:48.292Z,97819.39
2022-08-16T03:29:57.047Z,97827.48
2022-08-16T03:40:05.168Z,97828.77
2022-08-16T03:50:25.820Z,97831.07
2022-08-16T04:00:36.184Z,97842.27
2022-08-16T04:10:49.296Z,97844.02
2022-08-16T04:20:59.107Z,97844.48
2022-08-16T04:31:07.406Z,97841.94
2022-08-16T04:41:17.842Z,97847.87
2022-08-16T04:51:25.400Z,97856.19
2022-08-16T05:01:47.812Z,97866.14
2022-08-16T05:11:59.890Z,97869.05
2022-08-16T05:22:07.941Z,97869.25
2022-08-16T05:32:32.298Z,97880.81
2022-08-16T05:42:47.615Z,97889.68
2022-08-16T05:52:56.601Z,97889.98
2022-08-16T06:03:04.972Z,97892.59
2022-08-16T06:13:20.173Z,97894.63
2022-08-16T06:23:27.794Z,97902.65
2022-08-16T06:33:41.219Z,97923.21
2022-08-16T06:43:49.079Z,97926.40
2022-08-16T06:53:58.733Z,97929.98
2022-08-16T07:04:11.925Z,97922.68
2022-08-16T07:14:25.529Z,97923.37
2022-08-16T07:24:35.384Z,97924.80
2022-08-16T07:34:53.243Z,97927.83
2022-08-16T07:45:00.380Z,97933.80
2022-08-16T07:55:09.497Z,97935.89
2022-08-16T08:05:16.206Z,97928.63
2022-08-16T08:15:34.250Z,97927.29
2022-08-16T08:25:55.351Z,97934.52
2022-08-16T08:36:05.474Z,97948.27
2022-08-16T08:46:17.862Z,97960.92
2022-08-16T08:56:26.103Z,97957.11
2022-08-16T09:06:33.906Z,97947.30
2022-08-16T09:17:01.564Z,97947.73
2022-08-16T09:27:06.546Z,97955.54
2022-08-16T09:37:17.609Z,97951.11
2022-08-16T09:47:28.320Z,97953.43
2022-08-16T09:57:56.243Z,97959.04
2022-08-16T10:08:25.324Z,97961.84
2022-08-16T10:18:56.319Z,97962.65
2022-08-16T10:29:00.535Z,97967.14
2022-08-16T10:39:12.208Z,97966.95
2022-08-16T10:49:19.459Z,97956.93
2022-08-16T10:59:38.528Z,97973.71
2022-08-16T11:20:41.929Z,97964.52
2022-08-16T11:30:54.858Z,97954.95
2022-08-16T11:41:05.212Z,97953.11
2022-08-16T11:51:14.782Z,97938.75
2022-08-16T12:01:29.638Z,97933.98
2022-08-16T12:11:53.073Z,97925.51
2022-08-16T12:22:00.623Z,97936.95
2022-08-16T12:32:26.685Z,97929.39
2022-08-16T12:42:35.807Z,97924.16
2022-08-16T12:52:53.327Z,97937.34
2022-08-16T13:03:02.142Z,97929.13
2022-08-16T13:13:10.269Z,97929.60
2022-08-16T13:23:19.035Z,97954.95
2022-08-16T13:33:30.328Z,97972.18
2022-08-16T13:43:38.402Z,97973.79
2022-08-16T13:53:54.450Z,97966.64
2022-08-16T14:04:08.120Z,97955.06
2022-08-16T14:14:15.079Z,97955.52
2022-08-16T14:24:30.132Z,97950.34
2022-08-16T14:34:37.663Z,97940.38
2022-08-16T14:44:44.877Z,97927.23
2022-08-16T14:54:53.321Z,97926.79
2022-08-16T15:05:01.320Z,97924.62
2022-08-16T15:15:16.547Z,97914.63
2022-08-16T15:25:27.603Z,97937.03
2022-08-16T15:35:38.677Z,97969.58
2022-08-16T15:46:03.923Z,97992.35
2022-08-16T15:56:08.578Z,98002.44
2022-08-16T16:06:16.721Z,97997.42
2022-08-16T16:16:23.794Z,98000.54
2022-08-16T16:26:31.612Z,98001.95
2022-08-16T16:36:43.546Z,97999.14
2022-08-16T16:46:56.660Z,98002.52
2022-08-16T16:57:05.109Z,97996.20
2022-08-16T17:07:12.514Z,97983.80
2022-08-16T17:17:19.735Z,97994.93
2022-08-16T17:27:32.696Z,98004.45
2022-08-16T17:37:51.906Z,98008.27
2022-08-16T17:48:08.151Z,98007.57
2022-08-16T17:58:23.387Z,98001.15
2022-08-16T18:08:31.227Z,98006.95
2022-08-16T18:18:38.467Z,98020.46
2022-08-16T18:28:45.589Z,98025.64
2022-08-16T18:38:54.595Z,98029.62
2022-08-16T18:49:01.586Z,98038.60
2022-08-16T18:59:09.304Z,98042.48
2022-08-16T19:09:15.399Z,98046.59
2022-08-16T19:19:22.878Z,98054.98
2022-08-16T19:29:30.024Z,98059.85
2022-08-16T19:39:36.467Z,98065.23
2022-08-16T19:49:43.961Z,98070.83
2022-08-16T19:59:52.512Z,98079.19
2022-08-16T20:09:59.512Z,98078.92
2022-08-16T20:20:07.085Z,98089.71
2022-08-16T20:30:19.165Z,98098.08
2022-08-16T20:40:34.097Z,98106.23
2022-08-16T20:50:43.937Z,98108.22
2022-08-16T21:00:50.997Z,98107.04
2022-08-16T21:10:58.342Z,98110.77
2022-08-16T21:21:05.335Z,98115.46
2022-08-16T21:31:12.814Z,98112.76
2022-08-16T21:41:20.200Z,98112.80
2022-08-16T21:51:26.015Z,98112.48
2022-08-16T22:01:33.582Z,98105.66
2022-08-16T22:11:41.212Z,98105.64
2022-08-16T22:21:48.181Z,98113.00
2022-08-16T22:31:55.362Z,98112.68
2022-08-16T22:42:08.548Z,98112.47
2022-08-16T22:52:15.615Z,98103.70
2022-08-16T23:02:55.507Z,98094.45
2022-08-16T23:13:05.744Z,98084.31
2022-08-16T23:23:20.434Z,98080.68
2022-08-16T23:33:30.452Z,98082.39
2022-08-16T23:43:38.437Z,98079.02
2022-08-16T23:53:47.494Z,98077.28
